Time;durP1;ratioP1;P1;durP2;ratioP2;P2;SDS_P1;SDS_P2;PMS_P1;PMS_P2;Temp;Humidity;BMP_temperature;BMP_pressure;BME280_temperature;BME280_humidity;BME280_pressure;Samples;Min_cycle;Max_cycle;Signal;HPM_P1;HPM_P2
2023/03/11 00:00:12;;;;;;;;;12.33;11.33;27.60;35.60;;;;;;109569;1260;55455;-67
2023/03/11 00:03:02;;;;;;;;;15.00;14.00;27.60;35.50;;;;;;109641;1257;55917;-66
2023/03/11 00:05:35;;;;;;;;;13.00;12.00;27.60;35.70;;;;;;109537;1261;49098;-68
2023/03/11 00:08:02;;;;;;;;;15.00;12.00;27.60;35.40;;;;;;109592;1255;49948;-68
2023/03/11 00:10:31;;;;;;;;;17.00;14.50;27.60;35.40;;;;;;109568;1255;46069;-69
2023/03/11 00:12:59;;;;;;;;;18.00;15.00;27.50;35.30;;;;;;109774;1255;55769;-68
2023/03/11 00:15:26;;;;;;;;;15.67;12.00;27.50;35.40;;;;;;109715;1260;54227;-69
2023/03/11 00:17:52;;;;;;;;;13.00;12.00;27.50;35.60;;;;;;109677;1260;50143;-69
2023/03/11 00:20:25;;;;;;;;;15.00;14.00;27.50;35.30;;;;;;109639;1255;49074;-69
2023/03/11 00:22:52;;;;;;;;;16.50;15.50;27.40;35.30;;;;;;109777;1260;45694;-69
2023/03/11 00:25:20;;;;;;;;;15.00;14.00;27.40;35.30;;;;;;109621;1260;55353;-69
2023/03/11 00:27:46;;;;;;;;;13.00;12.00;27.40;35.30;;;;;;109596;1257;55043;-69
2023/03/11 00:30:14;;;;;;;;;14.00;13.00;27.30;35.20;;;;;;109649;1259;50626;-69
2023/03/11 00:32:40;;;;;;;;;13.50;12.50;27.30;35.30;;;;;;109667;1255;49916;-67
2023/03/11 00:35:07;;;;;;;;;13.00;12.00;27.20;35.30;;;;;;109716;1255;46892;-67
2023/03/11 00:37:34;;;;;;;;;13.00;12.00;27.20;35.20;;;;;;109829;1260;55373;-68
2023/03/11 00:40:00;;;;;;;;;14.00;13.00;27.20;35.20;;;;;;109706;1259;55357;-68
2023/03/11 00:42:26;;;;;;;;;13.33;11.00;27.10;35.20;;;;;;109642;1255;49017;-67
2023/03/11 00:44:52;;;;;;;;;12.00;11.00;27.10;35.40;;;;;;109649;1260;49883;-68
2023/03/11 00:47:18;;;;;;;;;14.00;13.00;27.10;35.20;;;;;;109615;1257;46094;-69
2023/03/11 00:49:45;;;;;;;;;17.00;13.00;27.00;34.70;;;;;;109606;1257;55688;-67
2023/03/11 00:52:11;;;;;;;;;18.00;13.00;26.90;35.20;;;;;;109676;1260;54102;-68
2023/03/11 00:54:37;;;;;;;;;13.00;11.00;26.90;35.20;;;;;;109597;1255;49752;-68
2023/03/11 00:57:03;;;;;;;;;11.00;10.00;26.90;35.20;;;;;;109583;1259;49554;-69
2023/03/11 00:59:30;;;;;;;;;13.00;12.00;26.90;35.40;;;;;;109589;1257;46067;-69
2023/03/11 01:01:56;;;;;;;;;13.00;12.00;26.80;35.40;;;;;;109602;1255;55375;-69
2023/03/11 01:04:22;;;;;;;;;12.00;11.00;26.70;35.20;;;;;;109547;1258;54239;-69
2023/03/11 01:06:48;;;;;;;;;15.00;13.00;26.70;35.20;;;;;;109585;1255;50378;-68
2023/03/11 01:09:15;;;;;;;;;15.00;12.50;26.70;35.20;;;;;;109573;1260;49773;-69
2023/03/11 01:11:41;;;;;;;;;14.25;12.00;26.60;35.20;;;;;;109563;1260;45532;-67
2023/03/11 01:14:07;;;;;;;;;14.00;13.00;26.60;35.20;;;;;;109584;1257;55480;-68
2023/03/11 01:16:34;;;;;;;;;13.50;11.00;26.60;35.40;;;;;;109714;1256;53640;-69
2023/03/11 01:19:00;;;;;;;;;12.00;11.00;26.60;35.20;;;;;;109641;1259;50177;-69
2023/03/11 01:21:27;;;;;;;;;14.00;13.00;26.50;35.20;;;;;;109692;1257;49688;-68
2023/03/11 01:23:53;;;;;;;;;13.00;12.00;26.50;35.30;;;;;;109718;1260;45591;-69
2023/03/11 01:26:19;;;;;;;;;12.00;11.00;26.40;35.20;;;;;;109578;1255;56078;-68
2023/03/11 01:28:45;;;;;;;;;12.00;11.00;26.40;35.40;;;;;;109627;1259;54230;-69
2023/03/11 01:31:12;;;;;;;;;14.00;11.00;26.40;35.30;;;;;;109611;1259;49554;-68
2023/03/11 01:33:38;;;;;;;;;11.00;10.00;26.30;35.20;;;;;;109602;1259;49340;-68
2023/03/11 01:36:05;;;;;;;;;13.00;12.00;26.30;35.80;;;;;;109581;1255;45424;-68
2023/03/11 01:38:32;;;;;;;;;14.00;13.00;26.30;35.20;;;;;;109595;1259;56092;-69
2023/03/11 01:40:58;;;;;;;;;14.00;12.33;26.20;35.10;;;;;;109587;1260;53724;-69
2023/03/11 01:43:54;;;;;;;;;11.00;10.00;26.20;35.10;;;;;;109628;1255;49984;-70
2023/03/11 01:46:22;;;;;;;;;13.00;12.00;26.10;35.10;;;;;;109489;1259;50073;-70
2023/03/11 01:49:00;;;;;;;;;14.00;11.00;26.10;35.30;;;;;;109659;1258;45990;-70
2023/03/11 01:51:28;;;;;;;;;14.00;12.00;26.10;35.30;;;;;;109688;1255;55512;-69
2023/03/11 01:53:56;;;;;;;;;14.00;12.00;26.10;35.10;;;;;;109592;1260;53357;-70
2023/03/11 01:56:23;;;;;;;;;12.50;11.00;26.10;35.30;;;;;;109560;1257;50391;-71
2023/03/11 01:58:51;;;;;;;;;17.50;12.50;26.00;35.10;;;;;;109537;1257;49784;-69
2023/03/11 02:01:19;;;;;;;;;13.50;11.50;26.00;35.10;;;;;;109616;1261;46454;-69
2023/03/11 02:03:47;;;;;;;;;17.00;12.00;25.90;35.10;;;;;;109611;1259;56055;-68
2023/03/11 02:06:16;;;;;;;;;11.00;10.00;25.90;35.10;;;;;;109598;1260;54591;-68
2023/03/11 02:08:43;;;;;;;;;13.00;11.00;25.90;35.10;;;;;;109627;1257;51248;-68
2023/03/11 02:11:15;;;;;;;;;13.50;12.00;25.80;35.10;;;;;;109585;1260;49176;-67
2023/03/11 02:13:42;;;;;;;;;13.00;11.00;25.80;35.20;;;;;;109629;1255;45665;-69
2023/03/11 02:16:09;;;;;;;;;11.00;10.00;25.80;34.70;;;;;;109566;1261;56234;-70
2023/03/11 02:18:36;;;;;;;;;13.00;12.00;25.70;35.20;;;;;;109556;1260;54487;-69
2023/03/11 02:21:29;;;;;;;;;12.00;11.00;25.70;35.20;;;;;;109637;1255;50009;-69
2023/03/11 02:24:00;;;;;;;;;13.00;12.00;25.60;35.10;;;;;;109585;1260;49566;-67
2023/03/11 02:26:39;;;;;;;;;16.00;12.00;25.70;35.20;;;;;;109595;1257;45370;-67
2023/03/11 02:29:08;;;;;;;;;13.00;12.00;25.60;35.20;;;;;;109662;1260;55329;-67
2023/03/11 02:31:37;;;;;;;;;13.00;11.00;25.60;35.20;;;;;;109638;1257;54249;-67
2023/03/11 02:34:06;;;;;;;;;11.00;10.00;25.50;35.10;;;;;;109887;1255;49852;-68
2023/03/11 02:36:38;;;;;;;;;13.00;12.00;25.50;35.20;;;;;;109722;1256;49276;-66
2023/03/11 02:39:04;;;;;;;;;13.00;11.00;25.50;35.20;;;;;;109777;1255;46487;-68
2023/03/11 02:41:33;;;;;;;;;15.50;12.75;25.50;35.20;;;;;;109934;1255;56125;-67
2023/03/11 02:44:01;;;;;;;;;12.50;11.50;25.40;35.30;;;;;;109839;1256;53698;-68
2023/03/11 02:46:27;;;;;;;;;14.00;13.00;25.40;35.20;;;;;;109709;1255;48977;-67
2023/03/11 02:48:54;;;;;;;;;12.00;11.00;25.40;35.30;;;;;;109714;1257;49373;-67
2023/03/11 02:51:21;;;;;;;;;11.00;10.00;25.40;35.30;;;;;;109636;1261;46234;-68
2023/03/11 02:53:51;;;;;;;;;14.00;11.50;25.30;35.30;;;;;;109626;1255;56329;-66
2023/03/11 02:56:17;;;;;;;;;10.25;9.00;25.20;35.30;;;;;;109645;1257;54662;-68
2023/03/11 02:58:43;;;;;;;;;11.67;10.67;25.20;35.30;;;;;;109627;1259;49559;-66
2023/03/11 03:01:10;;;;;;;;;12.00;11.00;25.20;35.40;;;;;;109658;1257;50435;-66
2023/03/11 03:03:36;;;;;;;;;12.00;11.00;25.20;35.90;;;;;;109616;1260;46207;-67
2023/03/11 03:06:03;;;;;;;;;12.00;10.50;25.10;35.40;;;;;;109587;1257;55357;-67
2023/03/11 03:08:29;;;;;;;;;14.00;13.00;25.10;35.60;;;;;;109613;1255;53940;-68
2023/03/11 03:10:55;;;;;;;;;12.00;11.00;25.00;35.40;;;;;;109596;1257;50013;-67
2023/03/11 03:13:22;;;;;;;;;11.00;10.00;25.00;35.50;;;;;;109612;1260;49176;-68
2023/03/11 03:15:48;;;;;;;;;14.67;12.67;24.90;35.40;;;;;;109606;1260;46315;-68
2023/03/11 03:18:14;;;;;;;;;11.00;10.00;25.00;35.60;;;;;;109593;1259;56240;-67
2023/03/11 03:20:40;;;;;;;;;14.00;12.00;24.90;35.50;;;;;;109554;1255;53952;-67
2023/03/11 03:23:06;;;;;;;;;12.00;11.00;24.90;35.50;;;;;;109610;1259;49041;-67
2023/03/11 03:25:33;;;;;;;;;11.00;11.00;24.90;35.60;;;;;;109547;1260;50116;-68
2023/03/11 03:27:59;;;;;;;;;12.00;11.00;24.80;35.50;;;;;;109629;1261;45781;-70
2023/03/11 03:30:27;;;;;;;;;12.00;11.00;24.80;35.50;;;;;;109594;1255;56359;-69
2023/03/11 03:32:54;;;;;;;;;12.00;11.00;24.80;35.60;;;;;;109742;1256;54121;-67
2023/03/11 03:35:20;;;;;;;;;13.00;11.00;24.80;35.60;;;;;;109694;1257;49098;-68
2023/03/11 03:37:47;;;;;;;;;14.50;11.50;24.70;35.50;;;;;;109676;1255;49530;-67
2023/03/11 03:40:13;;;;;;;;;11.50;10.00;24.70;35.50;;;;;;109644;1257;45953;-67
2023/03/11 03:42:39;;;;;;;;;12.33;11.00;24.70;35.60;;;;;;109765;1259;55244;-68
2023/03/11 03:45:07;;;;;;;;;11.00;10.00;24.60;35.70;;;;;;109580;1255;54358;-68
2023/03/11 03:47:34;;;;;;;;;13.00;12.00;24.60;35.50;;;;;;109626;1256;50156;-68
2023/03/11 03:50:02;;;;;;;;;15.00;13.00;24.60;35.60;;;;;;109578;1260;49863;-68
2023/03/11 03:52:28;;;;;;;;;13.00;12.00;24.60;35.60;;;;;;109709;1259;45971;-64
2023/03/11 03:54:55;;;;;;;;;14.00;11.00;24.60;35.70;;;;;;109588;1257;55729;-66
2023/03/11 03:57:21;;;;;;;;;13.00;11.00;24.60;35.60;;;;;;109672;1260;53235;-66
2023/03/11 03:59:47;;;;;;;;;13.00;11.50;24.50;35.60;;;;;;109619;1259;50005;-67
2023/03/11 04:02:13;;;;;;;;;14.00;11.50;24.50;35.70;;;;;;109620;1260;49810;-66
2023/03/11 04:04:40;;;;;;;;;13.00;11.00;24.50;35.70;;;;;;109739;1260;46073;-65
2023/03/11 04:07:06;;;;;;;;;13.00;11.50;24.50;35.70;;;;;;109632;1255;55602;-66
2023/03/11 04:09:32;;;;;;;;;12.50;11.00;24.40;35.60;;;;;;109581;1260;53834;-66
2023/03/11 04:11:59;;;;;;;;;12.50;11.00;24.40;35.70;;;;;;109685;1255;49952;-66
2023/03/11 04:14:25;;;;;;;;;16.00;13.50;24.40;35.60;;;;;;109712;1259;49719;-65
2023/03/11 04:16:51;;;;;;;;;12.00;10.00;24.40;35.80;;;;;;109596;1255;46151;-66
2023/03/11 04:19:17;;;;;;;;;10.00;9.00;24.50;35.90;;;;;;109783;1255;55620;-66
2023/03/11 04:21:44;;;;;;;;;12.00;10.00;24.50;35.90;;;;;;109621;1255;54240;-66
2023/03/11 04:24:10;;;;;;;;;12.00;11.00;24.50;36.10;;;;;;109567;1260;49975;-67
2023/03/11 04:26:36;;;;;;;;;14.00;12.00;24.60;36.00;;;;;;109641;1255;49549;-66
2023/03/11 04:29:02;;;;;;;;;11.00;10.00;24.70;36.30;;;;;;109601;1260;46693;-67
2023/03/11 04:31:29;;;;;;;;;11.50;10.00;24.70;36.00;;;;;;109654;1255;56227;-67
2023/03/11 04:33:55;;;;;;;;;12.00;11.00;24.80;36.10;;;;;;109702;1255;54301;-68
2023/03/11 04:36:21;;;;;;;;;11.00;10.00;24.90;36.20;;;;;;109789;1260;50308;-68
2023/03/11 04:38:48;;;;;;;;;12.50;11.00;25.00;36.20;;;;;;109804;1255;49482;-68
2023/03/11 04:41:14;;;;;;;;;13.00;12.00;25.10;36.10;;;;;;109743;1259;45709;-67
2023/03/11 04:43:40;;;;;;;;;11.00;10.00;25.10;36.10;;;;;;109732;1255;56474;-68
2023/03/11 04:46:06;;;;;;;;;11.00;10.00;25.20;36.10;;;;;;109795;1255;54341;-66
2023/03/11 04:48:33;;;;;;;;;10.00;9.00;25.30;36.10;;;;;;109679;1260;49143;-67
2023/03/11 04:50:59;;;;;;;;;10.00;9.00;25.40;36.20;;;;;;109878;1259;49901;-65
2023/03/11 04:53:25;;;;;;;;;12.00;11.00;25.50;36.20;;;;;;109631;1259;46470;-66
2023/03/11 04:55:52;;;;;;;;;12.00;11.00;25.50;36.20;;;;;;109618;1260;55297;-66
2023/03/11 04:58:19;;;;;;;;;9.00;8.00;25.60;36.20;;;;;;109605;1255;54254;-66
2023/03/11 05:00:45;;;;;;;;;10.67;9.67;25.70;36.20;;;;;;109579;1260;50189;-66
2023/03/11 05:03:12;;;;;;;;;10.00;9.00;25.80;36.20;;;;;;109590;1261;49097;-66
2023/03/11 05:05:38;;;;;;;;;11.00;10.00;25.90;36.20;;;;;;109581;1258;46037;-66
2023/03/11 05:08:05;;;;;;;;;13.00;12.00;25.90;36.10;;;;;;109616;1260;56615;-67
2023/03/11 05:10:31;;;;;;;;;12.00;11.00;26.00;36.10;;;;;;109612;1256;53857;-67
2023/03/11 05:12:58;;;;;;;;;10.67;9.00;26.00;36.00;;;;;;109676;1255;49748;-67
2023/03/11 05:15:24;;;;;;;;;11.00;10.00;26.10;36.10;;;;;;109716;1255;49045;-67
2023/03/11 05:17:50;;;;;;;;;11.50;10.50;26.10;35.50;;;;;;109726;1259;45493;-67
2023/03/11 05:20:17;;;;;;;;;11.00;10.00;26.20;36.10;;;;;;109954;1260;56741;-67
2023/03/11 05:22:43;;;;;;;;;12.00;10.00;26.20;36.10;;;;;;109774;1259;54155;-67
2023/03/11 05:25:10;;;;;;;;;11.00;10.00;26.30;36.30;;;;;;109741;1257;49236;-66
2023/03/11 05:27:36;;;;;;;;;11.00;10.00;26.30;36.20;;;;;;109612;1261;51112;-66
2023/03/11 05:30:03;;;;;;;;;11.00;10.00;26.30;35.90;;;;;;109731;1255;46217;-66
2023/03/11 05:32:29;;;;;;;;;12.00;10.67;26.40;36.10;;;;;;109784;1255;56394;-63
2023/03/11 05:34:56;;;;;;;;;11.50;10.50;26.40;35.80;;;;;;109651;1259;54556;-66
2023/03/11 05:37:22;;;;;;;;;11.00;9.00;26.40;35.70;;;;;;109705;1257;49904;-65
2023/03/11 05:39:48;;;;;;;;;10.00;9.00;26.40;35.70;;;;;;109595;1255;49191;-67
2023/03/11 05:42:15;;;;;;;;;11.00;10.00;26.40;35.70;;;;;;109718;1255;45501;-65
2023/03/11 05:44:41;;;;;;;;;12.00;10.00;26.40;35.60;;;;;;109640;1260;56042;-65
2023/03/11 05:47:07;;;;;;;;;10.50;9.50;26.40;35.30;;;;;;109587;1256;54329;-67
2023/03/11 05:49:33;;;;;;;;;11.00;10.00;26.40;35.50;;;;;;109603;1259;50980;-66
2023/03/11 05:52:00;;;;;;;;;12.00;9.50;26.40;35.50;;;;;;109784;1255;49273;-67
2023/03/11 05:54:26;;;;;;;;;10.00;8.00;26.50;35.60;;;;;;109666;1255;46391;-65
2023/03/11 05:56:52;;;;;;;;;10.00;9.00;26.40;35.60;;;;;;109639;1260;55515;-65
2023/03/11 05:59:19;;;;;;;;;11.50;10.00;26.40;35.60;;;;;;109609;1255;54242;-67
2023/03/11 06:01:45;;;;;;;;;11.00;10.00;26.40;35.50;;;;;;109615;1259;50076;-64
2023/03/11 06:04:11;;;;;;;;;9.00;8.00;26.40;35.50;;;;;;109576;1260;50033;-64
2023/03/11 06:06:42;;;;;;;;;9.00;8.00;26.40;35.50;;;;;;109623;1260;45840;-67
2023/03/11 06:09:12;;;;;;;;;10.00;9.00;26.40;35.50;;;;;;109676;1261;56377;-69
2023/03/11 06:11:38;;;;;;;;;11.00;10.00;26.40;35.40;;;;;;109727;1255;54253;-66
2023/03/11 06:14:04;;;;;;;;;9.00;8.00;26.30;35.40;;;;;;109751;1255;49999;-67
2023/03/11 06:16:31;;;;;;;;;11.00;10.00;26.30;35.40;;;;;;109681;1259;49127;-67
2023/03/11 06:18:59;;;;;;;;;11.00;9.50;26.40;35.60;;;;;;109769;1257;45518;-67
2023/03/11 06:21:25;;;;;;;;;9.50;8.50;26.30;35.40;;;;;;109505;1255;56711;-66
2023/03/11 06:23:52;;;;;;;;;11.00;10.00;26.30;35.30;;;;;;109567;1256;54434;-66
2023/03/11 06:26:20;;;;;;;;;14.00;11.00;26.30;35.30;;;;;;109525;1259;50570;-68
2023/03/11 06:28:47;;;;;;;;;11.00;9.00;26.30;35.20;;;;;;109573;1255;49470;-67
2023/03/11 06:31:15;;;;;;;;;12.00;10.00;26.20;35.40;;;;;;109473;1255;46137;-66
2023/03/11 06:33:42;;;;;;;;;12.00;10.50;26.20;35.20;;;;;;109653;1260;55975;-67
2023/03/11 06:36:09;;;;;;;;;11.00;10.00;26.20;35.20;;;;;;109642;1255;55086;-66
2023/03/11 06:38:36;;;;;;;;;11.00;8.00;26.20;35.20;;;;;;109563;1260;50121;-67
2023/03/11 06:41:03;;;;;;;;;11.67;9.67;26.10;34.90;;;;;;109603;1261;49543;-66
2023/03/11 06:43:31;;;;;;;;;10.00;9.00;26.10;35.10;;;;;;109666;1258;46139;-66
2023/03/11 06:45:57;;;;;;;;;10.00;9.00;26.10;35.70;;;;;;109645;1256;55592;-66
2023/03/11 06:48:24;;;;;;;;;11.00;9.00;26.10;35.10;;;;;;109580;1259;54089;-67
2023/03/11 06:50:58;;;;;;;;;10.00;9.00;26.00;35.10;;;;;;109726;1260;50245;-66
2023/03/11 06:53:27;;;;;;;;;10.00;9.00;26.00;35.10;;;;;;109516;1255;49682;-65
2023/03/11 06:56:10;;;;;;;;;12.00;11.00;26.00;35.30;;;;;;109586;1257;45445;-66
2023/03/11 06:58:38;;;;;;;;;11.50;8.50;26.00;35.60;;;;;;109664;1259;56879;-66
2023/03/11 07:01:17;;;;;;;;;10.00;9.00;25.90;35.10;;;;;;109557;1259;54600;-66
2023/03/11 07:03:45;;;;;;;;;10.00;9.00;25.90;35.10;;;;;;109631;1255;50213;-66
2023/03/11 07:06:14;;;;;;;;;11.00;8.00;25.90;35.00;;;;;;109562;1255;149620;-67
2023/03/11 07:08:40;;;;;;;;;10.00;8.00;25.90;35.00;;;;;;109573;1255;45707;-66
2023/03/11 07:11:09;;;;;;;;;10.00;9.00;25.90;35.00;;;;;;109461;1260;55216;-65
2023/03/11 07:13:36;;;;;;;;;11.00;10.00;25.90;35.20;;;;;;109542;1257;53643;-66
2023/03/11 07:16:17;;;;;;;;;9.00;8.00;25.90;35.30;;;;;;109579;1259;49651;-66
2023/03/11 07:18:45;;;;;;;;;13.00;10.00;25.80;35.10;;;;;;109638;1257;49167;-66
2023/03/11 07:21:14;;;;;;;;;10.33;9.33;25.80;35.50;;;;;;109476;1259;44847;-66
2023/03/11 07:23:41;;;;;;;;;9.50;9.00;25.80;35.00;;;;;;109599;1259;56384;-66
2023/03/11 07:26:16;;;;;;;;;9.00;8.00;25.80;35.00;;;;;;109542;1259;53653;-67
2023/03/11 07:28:43;;;;;;;;;11.00;10.00;25.70;34.80;;;;;;109613;1255;49724;-65
2023/03/11 07:31:15;;;;;;;;;10.00;9.00;25.70;34.80;;;;;;109453;1259;49158;-65
2023/03/11 07:33:42;;;;;;;;;10.00;9.00;25.70;34.80;;;;;;109535;1260;45411;-65
2023/03/11 07:36:11;;;;;;;;;10.00;9.00;25.70;34.80;;;;;;109548;1260;55519;-65
2023/03/11 07:38:38;;;;;;;;;10.50;9.50;25.70;35.10;;;;;;109881;1259;54745;-64
2023/03/11 07:41:05;;;;;;;;;9.50;8.00;25.60;34.80;;;;;;109605;1260;49813;-65
2023/03/11 07:43:31;;;;;;;;;9.50;8.50;25.60;34.80;;;;;;109558;1255;48631;-65
2023/03/11 07:46:09;;;;;;;;;10.00;8.00;25.60;34.80;;;;;;109618;1255;45851;-65
2023/03/11 07:48:37;;;;;;;;;12.00;9.00;25.50;34.80;;;;;;109635;1255;56552;-69
2023/03/11 07:51:04;;;;;;;;;10.00;9.00;25.50;34.80;;;;;;109445;1260;54427;-66
2023/03/11 07:53:31;;;;;;;;;11.50;9.00;25.50;34.80;;;;;;109601;1256;49452;-69
2023/03/11 07:55:58;;;;;;;;;9.00;8.00;25.50;34.90;;;;;;109699;1257;49585;-66
2023/03/11 07:58:24;;;;;;;;;10.50;9.00;25.40;34.80;;;;;;109576;1260;45367;-66
2023/03/11 08:00:51;;;;;;;;;10.00;9.00;25.40;34.90;;;;;;109561;1260;55698;-66
2023/03/11 08:03:18;;;;;;;;;8.00;7.00;25.40;35.00;;;;;;109553;1256;53831;-66
2023/03/11 08:05:44;;;;;;;;;9.75;8.75;25.30;35.10;;;;;;109646;1259;49897;-64
2023/03/11 08:08:10;;;;;;;;;12.00;10.00;25.30;35.10;;;;;;109523;1255;49147;-66
2023/03/11 08:10:37;;;;;;;;;9.00;8.00;25.30;35.20;;;;;;109588;1260;46069;-65
2023/03/11 08:13:04;;;;;;;;;9.00;8.00;25.30;35.30;;;;;;109534;1256;56155;-66
2023/03/11 08:15:31;;;;;;;;;9.50;8.50;25.30;35.40;;;;;;109745;1255;54693;-66
2023/03/11 08:17:57;;;;;;;;;;;25.30;35.40;;;;;;109732;1259;49331;-65
2023/03/11 08:20:23;;;;;;;;;9.00;8.00;25.30;35.60;;;;;;109687;1257;49173;-66
2023/03/11 08:22:49;;;;;;;;;10.00;9.00;25.20;35.40;;;;;;109677;1255;45607;-66
2023/03/11 08:25:16;;;;;;;;;;;25.30;35.90;;;;;;109817;1259;56025;-66
2023/03/11 08:27:42;;;;;;;;;9.75;9.00;25.30;35.50;;;;;;109864;1260;54259;-66
2023/03/11 08:30:09;;;;;;;;;11.50;9.00;25.30;35.60;;;;;;109580;1259;48251;-66
2023/03/11 08:32:36;;;;;;;;;11.00;10.00;25.30;35.60;;;;;;109639;1260;49622;-66
2023/03/11 08:35:02;;;;;;;;;11.00;9.00;25.30;35.80;;;;;;109668;1255;45886;-66
2023/03/11 08:37:30;;;;;;;;;10.00;9.00;25.30;35.60;;;;;;109713;1255;56298;-65
2023/03/11 08:39:56;;;;;;;;;10.00;10.00;25.30;35.60;;;;;;109742;1255;54477;-65
2023/03/11 08:42:22;;;;;;;;;12.00;8.00;25.30;35.70;;;;;;109668;1256;50293;-66
2023/03/11 08:44:49;;;;;;;;;10.00;9.00;25.30;35.70;;;;;;109879;1260;50119;-67
2023/03/11 08:47:15;;;;;;;;;10.50;9.00;25.40;35.80;;;;;;109608;1260;45808;-66
2023/03/11 08:49:42;;;;;;;;;9.50;8.50;25.40;35.70;;;;;;109689;1259;55703;-66
2023/03/11 08:52:08;;;;;;;;;12.00;10.67;25.40;35.80;;;;;;109808;1255;54273;-66
2023/03/11 08:54:34;;;;;;;;;10.50;9.50;25.40;35.80;;;;;;109670;1255;48988;-67
2023/03/11 08:57:03;;;;;;;;;9.50;9.00;25.50;35.80;;;;;;109823;1255;50216;-66
2023/03/11 08:59:29;;;;;;;;;11.00;8.50;25.50;35.80;;;;;;109535;1257;45937;-66
2023/03/11 09:01:55;;;;;;;;;14.00;10.00;25.50;35.80;;;;;;109632;1255;55260;-68
2023/03/11 09:04:22;;;;;;;;;12.00;10.00;25.50;36.00;;;;;;109551;1255;55048;-65
2023/03/11 09:06:48;;;;;;;;;8.00;7.00;25.50;35.80;;;;;;109650;1255;49681;-65
2023/03/11 09:09:20;;;;;;;;;9.67;8.67;25.50;35.80;;;;;;109603;1260;49405;-65
2023/03/11 09:11:47;;;;;;;;;10.00;9.00;25.60;35.80;;;;;;109711;1255;46054;-65
2023/03/11 09:14:14;;;;;;;;;9.00;8.00;25.60;35.80;;;;;;109538;1257;55656;-66
2023/03/11 09:16:40;;;;;;;;;13.50;9.00;25.60;35.80;;;;;;109554;1257;54047;-67
2023/03/11 09:19:06;;;;;;;;;12.00;10.00;25.70;35.80;;;;;;109770;1255;49375;-66
2023/03/11 09:21:34;;;;;;;;;10.00;9.00;25.70;35.80;;;;;;109555;1261;49729;-66
2023/03/11 09:24:00;;;;;;;;;13.00;11.00;25.70;35.80;;;;;;109608;1257;45546;-66
2023/03/11 09:26:26;;;;;;;;;11.00;10.00;25.70;35.80;;;;;;109862;1260;55573;-66
2023/03/11 09:28:53;;;;;;;;;9.00;8.00;25.80;35.80;;;;;;109651;1255;53415;-66
2023/03/11 09:31:19;;;;;;;;;10.00;9.00;25.80;35.90;;;;;;109851;1260;49034;-65
2023/03/11 09:33:46;;;;;;;;;11.00;10.00;25.80;35.80;;;;;;109548;1260;48928;-66
2023/03/11 09:36:18;;;;;;;;;9.00;8.00;25.80;35.80;;;;;;109588;1260;45891;-66
2023/03/11 09:38:45;;;;;;;;;10.00;9.00;25.90;35.80;;;;;;109621;1260;56109;-66
2023/03/11 09:41:36;;;;;;;;;9.00;7.00;25.90;36.00;;;;;;109695;1257;54139;-64
2023/03/11 09:44:11;;;;;;;;;9.00;8.00;25.90;35.80;;;;;;109648;1255;50094;-67
2023/03/11 09:46:56;;;;;;;;;11.00;10.50;26.00;35.80;;;;;;109618;1257;48764;-67
2023/03/11 09:49:34;;;;;;;;;9.50;8.50;26.00;35.80;;;;;;109660;1258;45566;-66
2023/03/11 09:52:07;;;;;;;;;10.00;9.00;26.10;35.80;;;;;;109669;1255;55492;-65
2023/03/11 09:54:38;;;;;;;;;10.00;9.00;26.10;35.80;;;;;;109619;1260;54762;-66
2023/03/11 09:57:05;;;;;;;;;11.00;10.00;26.20;35.80;;;;;;109605;1257;50780;-66
2023/03/11 09:59:32;;;;;;;;;10.00;9.00;26.30;35.80;;;;;;109371;1264;50014;-64
2023/03/11 10:01:59;;;;;;;;;12.00;10.00;26.30;36.00;;;;;;109577;1258;45315;-65
2023/03/11 10:05:14;;;;;;;;;9.00;8.00;26.40;35.90;;;;;;109414;1260;57022;-65
2023/03/11 10:07:43;;;;;;;;;9.00;8.00;26.40;35.80;;;;;;109420;1260;54553;-65
2023/03/11 10:10:12;;;;;;;;;8.00;7.00;26.50;35.80;;;;;;109603;1257;49909;-65
2023/03/11 10:12:41;;;;;;;;;11.00;9.00;26.50;35.30;;;;;;109436;1257;48695;-67
2023/03/11 10:15:25;;;;;;;;;10.00;8.00;26.60;35.80;;;;;;109729;1255;45173;-67
2023/03/11 10:17:57;;;;;;;;;10.50;9.50;26.60;35.70;;;;;;109605;1257;56626;-68
2023/03/11 10:20:26;;;;;;;;;12.00;10.00;26.60;35.60;;;;;;109699;1255;53905;-67
2023/03/11 10:23:05;;;;;;;;;9.67;8.67;26.60;35.60;;;;;;109673;1255;49101;-67
2023/03/11 10:26:09;;;;;;;;;12.50;9.50;26.70;35.90;;;;;;109611;1255;49124;-68
2023/03/11 10:28:41;;;;;;;;;9.00;8.00;26.70;35.80;;;;;;109786;1259;45159;-67
2023/03/11 10:31:18;;;;;;;;;10.50;9.50;26.70;35.50;;;;;;109615;1257;55764;-67
2023/03/11 10:33:49;;;;;;;;;10.00;9.00;26.80;35.60;;;;;;109611;1259;54251;-68
2023/03/11 10:36:18;;;;;;;;;;;26.80;35.60;;;;;;109609;1255;48950;-67
2023/03/11 10:38:48;;;;;;;;;9.00;8.00;26.80;35.60;;;;;;109598;1255;48638;-66
2023/03/11 10:41:22;;;;;;;;;9.00;8.00;26.80;35.60;;;;;;109667;1255;46256;-66
2023/03/11 10:43:55;;;;;;;;;8.33;7.33;26.90;35.60;;;;;;109571;1256;55849;-67
2023/03/11 10:46:26;;;;;;;;;9.00;8.00;27.00;35.70;;;;;;109624;1255;53645;-67
2023/03/11 10:48:52;;;;;;;;;9.00;8.00;27.00;35.60;;;;;;109528;1257;49894;-68
2023/03/11 10:51:21;;;;;;;;;8.33;7.67;27.00;35.50;;;;;;109737;1259;49181;-69
2023/03/11 10:53:54;;;;;;;;;11.00;8.00;27.10;35.50;;;;;;109588;1258;46104;-67
2023/03/11 10:56:35;;;;;;;;;11.50;10.50;27.10;35.50;;;;;;109593;1255;56813;-67
2023/03/11 10:59:04;;;;;;;;;10.33;9.67;27.20;35.50;;;;;;109626;1257;54120;-67
2023/03/11 11:01:30;;;;;;;;;8.00;7.00;27.20;35.50;;;;;;109670;1255;49468;-67
2023/03/11 11:03:59;;;;;;;;;10.00;7.67;27.20;35.40;;;;;;109636;1257;48521;-68
2023/03/11 11:06:33;;;;;;;;;11.00;9.00;27.20;35.40;;;;;;109572;1257;45571;-68
2023/03/11 11:09:05;;;;;;;;;10.00;9.00;27.30;35.40;;;;;;109699;1255;55328;-68
2023/03/11 11:11:34;;;;;;;;;10.00;9.00;27.30;35.40;;;;;;109705;1256;53605;-67
2023/03/11 11:14:00;;;;;;;;;8.50;7.50;27.30;35.30;;;;;;109656;1255;49465;-68
2023/03/11 11:16:27;;;;;;;;;9.00;8.00;27.30;35.30;;;;;;109655;1255;48665;-69
2023/03/11 11:19:11;;;;;;;;;10.50;7.00;27.40;35.30;;;;;;109638;1260;45705;-69
2023/03/11 11:21:48;;;;;;;;;9.00;8.00;27.40;35.20;;;;;;109717;1255;55653;-68
2023/03/11 11:24:26;;;;;;;;;10.00;8.00;27.40;35.20;;;;;;109501;1257;54057;-68
2023/03/11 11:27:04;;;;;;;;;9.00;8.00;27.40;35.10;;;;;;109716;1255;49798;-68
2023/03/11 11:29:30;;;;;;;;;9.00;8.00;27.50;35.10;;;;;;109766;1260;49893;-68
2023/03/11 11:32:29;;;;;;;;;9.50;8.50;27.50;35.10;;;;;;109742;1260;45782;-68
2023/03/11 11:35:13;;;;;;;;;9.00;8.00;27.50;35.10;;;;;;109383;1255;55970;-67
2023/03/11 11:37:47;;;;;;;;;9.00;8.00;27.50;35.00;;;;;;109724;1257;53761;-66
2023/03/11 11:40:13;;;;;;;;;9.00;8.00;27.50;34.90;;;;;;109795;1260;48736;-66
2023/03/11 11:42:51;;;;;;;;;10.00;9.00;27.50;34.80;;;;;;109799;1259;48761;-67
2023/03/11 11:45:30;;;;;;;;;8.00;7.00;27.60;34.80;;;;;;109715;1255;46059;-67
2023/03/11 11:48:05;;;;;;;;;9.00;8.00;27.60;35.00;;;;;;109853;1259;55612;-67
2023/03/11 11:50:37;;;;;;;;;10.00;9.00;27.60;34.70;;;;;;109702;1255;53651;-67
2023/03/11 11:53:10;;;;;;;;;9.00;8.00;27.60;34.60;;;;;;109841;1255;49259;-66
2023/03/11 11:55:42;;;;;;;;;9.00;7.00;27.60;34.60;;;;;;109706;1255;48906;-66
2023/03/11 11:58:11;;;;;;;;;9.00;8.00;27.50;34.50;;;;;;109729;1260;46159;-67
2023/03/11 12:00:48;;;;;;;;;9.00;8.00;27.50;34.50;;;;;;109599;1261;55897;-67
2023/03/11 12:03:20;;;;;;;;;9.00;8.00;27.50;34.50;;;;;;109927;1261;54154;-67
2023/03/11 12:06:01;;;;;;;;;8.00;7.00;27.50;34.50;;;;;;109772;1259;49862;-67
2023/03/11 12:08:51;;;;;;;;;9.00;8.00;27.40;34.40;;;;;;109667;1260;49569;-67
2023/03/11 12:11:29;;;;;;;;;9.00;8.00;27.40;34.40;;;;;;109663;1255;46705;-67
2023/03/11 12:14:02;;;;;;;;;9.00;8.00;27.40;34.50;;;;;;109626;1255;56402;-66
2023/03/11 12:17:06;;;;;;;;;9.00;8.00;27.30;34.40;;;;;;109549;1260;55028;-67
2023/03/11 12:19:40;;;;;;;;;10.00;9.00;27.30;34.40;;;;;;109577;1255;49338;-68
2023/03/11 12:22:28;;;;;;;;;10.00;7.00;27.30;34.40;;;;;;109731;1257;49531;-67
2023/03/11 12:25:03;;;;;;;;;21.00;1.00;27.20;34.60;;;;;;109927;1257;45886;-67
2023/03/11 12:28:07;;;;;;;;;20.00;0.00;27.20;34.60;;;;;;109637;1255;55330;-68
2023/03/11 12:30:41;;;;;;;;;9.00;6.00;27.30;34.60;;;;;;109619;1255;54716;-68
2023/03/11 12:33:33;;;;;;;;;8.00;7.00;27.40;34.50;;;;;;109710;1255;49264;-67
2023/03/11 12:36:01;;;;;;;;;13.00;2.00;27.60;34.60;;;;;;109613;1255;49680;-67